Time;durP1;ratioP1;P1;durP2;ratioP2;P2;SDS_P1;SDS_P2;PMS_P1;PMS_P2;Temp;Humidity;BMP_temperature;BMP_pressure;BME280_temperature;BME280_humidity;BME280_pressure;Samples;Min_cycle;Max_cycle;Signal;HPM_P1;HPM_P2
2022/11/22 00:01:15;;;;;;;2.40;1.10;;;;;;;15.09;62.48;99052.09;4805044;29;20039;-80
2022/11/22 00:03:42;;;;;;;1.70;1.00;;;;;;;15.09;62.16;99046.94;4805953;29;20096;-80
2022/11/22 00:06:09;;;;;;;3.70;1.10;;;;;;;15.08;62.24;99048.69;4835769;29;20046;-81
2022/11/22 00:08:36;;;;;;;1.67;0.90;;;;;;;15.08;62.04;99048.69;4822148;29;20513;-81
2022/11/22 00:11:04;;;;;;;1.95;0.98;;;;;;;15.08;62.28;99050.41;4825811;29;20042;-81
2022/11/22 00:13:31;;;;;;;1.98;1.00;;;;;;;15.08;62.35;99050.41;4826412;29;20067;-80
2022/11/22 00:16:02;;;;;;;2.08;1.10;;;;;;;15.07;62.20;99036.63;4818991;29;20054;-80
2022/11/22 00:18:29;;;;;;;1.95;1.10;;;;;;;15.08;61.92;99045.25;4833881;29;20110;-80
2022/11/22 00:20:56;;;;;;;2.60;1.08;;;;;;;15.08;62.50;99032.28;4819385;29;20038;-80
2022/11/22 00:23:24;;;;;;;1.67;0.90;;;;;;;15.08;62.32;99030.53;4836048;29;20042;-80
2022/11/22 00:25:52;;;;;;;1.95;1.02;;;;;;;15.07;62.35;99030.56;4820916;29;20042;-80
2022/11/22 00:28:19;;;;;;;1.88;1.02;;;;;;;15.07;62.26;99036.63;4836397;29;20382;-80
2022/11/22 00:30:45;;;;;;;1.92;1.05;;;;;;;15.08;62.17;99040.06;4820239;29;20046;-80
2022/11/22 00:33:13;;;;;;;1.60;1.00;;;;;;;15.07;61.90;99022.81;4833009;29;20472;-80
2022/11/22 00:35:39;;;;;;;2.05;1.17;;;;;;;15.07;62.48;99027.97;4835842;29;20034;-80
2022/11/22 00:38:06;;;;;;;1.65;1.08;;;;;;;15.08;62.21;99035.72;4821531;29;20046;-80
2022/11/22 00:40:33;;;;;;;1.67;0.93;;;;;;;15.07;62.18;99028.84;4821874;29;20034;-80
2022/11/22 00:43:02;;;;;;;2.20;1.20;;;;;;;15.07;62.20;99031.44;4840037;29;20047;-80
2022/11/22 00:45:28;;;;;;;1.70;1.02;;;;;;;15.08;62.07;99042.66;4842144;29;20042;-80
2022/11/22 00:47:55;;;;;;;2.28;0.90;;;;;;;15.08;62.20;99047.84;4835841;29;20082;-81
2022/11/22 00:50:20;;;;;;;2.17;1.10;;;;;;;15.09;62.07;99049.50;4822333;29;20147;-80
2022/11/22 00:52:52;;;;;;;2.47;1.20;;;;;;;15.08;61.94;99050.41;4837732;29;20039;-80
2022/11/22 00:55:19;;;;;;;1.75;1.00;;;;;;;15.08;62.23;99047.84;4820181;29;20054;-80
2022/11/22 00:57:45;;;;;;;3.38;1.38;;;;;;;15.08;61.99;99055.59;4837243;29;20073;-80
2022/11/22 01:00:13;;;;;;;1.95;1.00;;;;;;;15.10;62.12;99059.00;4820185;29;20038;-80
2022/11/22 01:02:41;;;;;;;2.85;1.20;;;;;;;15.07;61.98;99059.94;4833206;29;20126;-80
2022/11/22 01:05:08;;;;;;;2.17;1.25;;;;;;;15.08;62.15;99055.59;4804685;29;20080;-80
2022/11/22 01:07:33;;;;;;;2.70;1.45;;;;;;;15.07;62.06;99057.34;4819425;29;20094;-80
2022/11/22 01:10:00;;;;;;;2.22;1.20;;;;;;;15.07;62.10;99051.28;4838580;29;20027;-80
2022/11/22 01:12:30;;;;;;;2.85;1.10;;;;;;;15.08;62.04;99055.59;4823477;29;20452;-80
2022/11/22 01:14:59;;;;;;;3.83;1.27;;;;;;;15.07;62.07;99052.16;4819409;29;20050;-80
2022/11/22 01:17:25;;;;;;;2.88;1.20;;;;;;;15.07;62.03;99046.13;4804458;29;20054;-80
2022/11/22 01:19:51;;;;;;;2.00;1.00;;;;;;;15.06;62.16;99041.84;4838161;29;20141;-80
2022/11/22 01:22:16;;;;;;;1.95;1.15;;;;;;;15.07;61.86;99044.41;4821998;29;20505;-80
2022/11/22 01:24:42;;;;;;;2.50;1.33;;;;;;;15.07;62.08;99041.81;4822473;29;20039;-80
2022/11/22 01:27:07;;;;;;;1.83;1.13;;;;;;;15.08;61.81;99048.69;4820874;29;20038;-80
2022/11/22 01:29:34;;;;;;;2.38;1.20;;;;;;;15.08;61.83;99037.47;4827636;29;20049;-81
2022/11/22 01:32:00;;;;;;;2.25;1.10;;;;;;;15.07;61.84;99041.81;4833224;29;20046;-80
2022/11/22 01:34:25;;;;;;;1.98;1.02;;;;;;;15.08;61.91;99032.28;4818029;29;20041;-80
2022/11/22 01:36:52;;;;;;;1.88;1.02;;;;;;;15.07;61.83;99033.16;4815700;29;20057;-80
2022/11/22 01:39:23;;;;;;;2.63;1.20;;;;;;;15.07;61.95;99031.44;4827867;29;20043;-81
2022/11/22 01:41:50;;;;;;;2.95;1.30;;;;;;;15.07;62.19;99044.41;4843066;29;20042;-80
2022/11/22 01:44:17;;;;;;;2.38;1.08;;;;;;;15.07;62.01;99048.72;4828423;29;20023;-81
2022/11/22 01:46:43;;;;;;;2.00;1.10;;;;;;;15.07;61.92;99046.13;4827487;29;20060;-80
2022/11/22 01:49:34;;;;;;;2.15;1.02;;;;;;;15.06;61.57;99042.69;4827722;29;20117;-81
2022/11/22 01:52:04;;;;;;;3.70;0.98;;;;;;;15.06;62.04;99042.69;4828051;29;20068;-81
2022/11/22 01:54:34;;;;;;;1.70;0.98;;;;;;;15.07;61.88;99038.34;4845559;29;20081;-81
2022/11/22 01:57:09;;;;;;;2.20;1.25;;;;;;;15.07;61.75;99041.81;4811661;29;20237;-81
2022/11/22 02:00:25;;;;;;;2.35;0.98;;;;;;;15.06;61.70;99034.91;4844391;29;20072;-82
2022/11/22 02:03:21;;;;;;;2.13;1.05;;;;;;;15.06;61.81;99034.91;4812310;29;20094;-82
2022/11/22 02:06:10;;;;;;;2.72;1.10;;;;;;;15.07;61.93;99033.16;4788369;30;20042;-81
2022/11/22 02:09:09;;;;;;;2.78;1.10;;;;;;;15.06;61.62;99042.69;4773671;30;20044;-81
2022/11/22 02:11:46;;;;;;;2.75;0.93;;;;;;;15.06;61.66;99041.84;4774828;30;20175;-80
2022/11/22 02:14:13;;;;;;;2.33;1.02;;;;;;;15.06;61.86;99044.44;4774746;30;20047;-80
2022/11/22 02:16:41;;;;;;;2.40;1.15;;;;;;;15.06;61.78;99044.44;4788628;30;20035;-80
2022/11/22 02:19:17;;;;;;;2.67;1.00;;;;;;;15.05;61.94;99042.72;4786053;30;20051;-80
2022/11/22 02:21:48;;;;;;;2.05;1.08;;;;;;;15.07;61.78;99043.53;4769329;30;20040;-80
2022/11/22 02:24:44;;;;;;;2.70;1.00;;;;;;;15.06;61.92;99041.84;4769664;30;20045;-80
2022/11/22 02:27:09;;;;;;;2.25;0.90;;;;;;;15.06;61.67;99050.47;4752142;30;20044;-80
2022/11/22 02:29:37;;;;;;;2.22;0.95;;;;;;;15.06;61.70;99049.63;4751201;30;20112;-80
2022/11/22 02:32:03;;;;;;;1.65;0.85;;;;;;;15.05;61.70;99047.91;4723495;30;20048;-81
2022/11/22 02:34:39;;;;;;;1.70;0.90;;;;;;;15.04;61.70;99053.97;4751429;30;20126;-80
2022/11/22 02:37:06;;;;;;;2.83;1.10;;;;;;;15.05;61.82;99050.50;4720992;30;20091;-80
2022/11/22 02:39:33;;;;;;;2.30;1.00;;;;;;;15.04;61.59;99046.22;4716897;30;20104;-80
2022/11/22 02:41:58;;;;;;;1.98;0.93;;;;;;;15.04;61.76;99047.06;4746846;30;20049;-81
2022/11/22 02:44:24;;;;;;;1.77;0.95;;;;;;;15.03;61.69;99042.78;4732105;30;20044;-80
2022/11/22 02:46:52;;;;;;;1.98;1.00;;;;;;;15.04;61.70;99048.81;4745967;30;20113;-80
2022/11/22 02:49:20;;;;;;;2.38;1.10;;;;;;;15.04;61.64;99057.41;4732393;30;20036;-80
2022/11/22 02:51:46;;;;;;;2.03;1.05;;;;;;;15.04;61.56;99059.16;4731108;30;20131;-80
2022/11/22 02:54:14;;;;;;;2.03;1.10;;;;;;;15.03;61.65;99060.91;4731866;30;20051;-80
2022/11/22 02:56:40;;;;;;;1.80;0.93;;;;;;;15.03;61.54;99060.91;4781030;30;20494;-80
2022/11/22 02:59:06;;;;;;;2.05;1.23;;;;;;;15.02;61.53;99054.00;4818094;29;20045;-80
2022/11/22 03:01:33;;;;;;;2.63;1.15;;;;;;;15.02;61.39;99056.59;4819489;29;20056;-80
2022/11/22 03:03:59;;;;;;;2.78;0.95;;;;;;;15.04;61.48;99061.75;4820526;29;20055;-81
2022/11/22 03:06:26;;;;;;;3.08;1.00;;;;;;;15.01;61.46;99063.53;4824222;29;20087;-81
2022/11/22 03:08:52;;;;;;;1.63;0.80;;;;;;;15.01;61.64;99060.94;4830766;29;20088;-81
2022/11/22 03:11:20;;;;;;;2.88;1.13;;;;;;;15.01;61.42;99071.31;4800822;29;20106;-81
2022/11/22 03:13:47;;;;;;;1.67;1.00;;;;;;;15.03;61.44;99079.03;4830839;29;20031;-81
2022/11/22 03:16:14;;;;;;;2.35;1.00;;;;;;;15.01;61.59;99073.06;4825949;29;20042;-80
2022/11/22 03:18:39;;;;;;;1.83;0.95;;;;;;;15.02;61.45;99077.34;4806865;29;20074;-80
2022/11/22 03:21:08;;;;;;;2.05;1.00;;;;;;;15.02;61.39;99085.09;4822744;29;20046;-81
2022/11/22 03:23:34;;;;;;;1.83;0.98;;;;;;;15.04;61.54;99092.84;4821451;29;20060;-80
2022/11/22 03:26:08;;;;;;;1.23;0.85;;;;;;;15.02;61.49;99088.56;4808030;29;20043;-81
2022/11/22 03:28:34;;;;;;;2.95;1.02;;;;;;;15.02;61.58;99085.97;4824115;29;20030;-80
2022/11/22 03:30:59;;;;;;;2.22;1.10;;;;;;;15.02;61.54;99085.09;4840806;29;20114;-81
2022/11/22 03:33:24;;;;;;;2.03;0.88;;;;;;;15.01;61.41;99081.66;4827000;29;20041;-80
2022/11/22 03:35:55;;;;;;;2.90;1.10;;;;;;;15.01;61.35;99079.06;4821586;29;20121;-80
2022/11/22 03:38:20;;;;;;;1.75;1.05;;;;;;;15.00;61.47;99079.09;4822659;29;20037;-80
2022/11/22 03:40:47;;;;;;;2.80;1.10;;;;;;;15.00;61.44;99087.75;4821649;29;20106;-80
2022/11/22 03:43:13;;;;;;;2.03;1.00;;;;;;;15.00;61.32;99079.97;4822081;29;20035;-80
2022/11/22 03:45:46;;;;;;;2.35;1.02;;;;;;;15.00;61.33;99085.16;4819722;29;20057;-80
2022/11/22 03:48:14;;;;;;;1.50;0.80;;;;;;;15.01;61.37;99089.44;4802979;29;20079;-80
2022/11/22 03:50:40;;;;;;;2.70;1.20;;;;;;;15.00;61.31;99092.06;4800483;30;20043;-80
2022/11/22 03:53:08;;;;;;;2.47;1.00;;;;;;;14.99;61.35;99093.81;4800392;30;20063;-80
2022/11/22 03:55:33;;;;;;;2.20;1.00;;;;;;;15.00;61.25;99094.66;4784668;30;20053;-81
2022/11/22 03:57:59;;;;;;;4.13;1.30;;;;;;;14.99;61.11;99095.56;4783521;30;20066;-80
2022/11/22 04:00:25;;;;;;;3.53;1.15;;;;;;;14.98;61.41;99099.91;4799677;29;20077;-80
2022/11/22 04:02:52;;;;;;;2.20;1.10;;;;;;;14.98;61.10;99092.13;4797981;29;20411;-80
2022/11/22 04:05:17;;;;;;;1.98;0.98;;;;;;;14.99;61.27;99104.16;4795996;30;20058;-80
2022/11/22 04:07:43;;;;;;;2.70;1.25;;;;;;;14.98;61.10;99110.25;4812162;29;20040;-80
2022/11/22 04:10:10;;;;;;;2.60;1.08;;;;;;;14.98;61.41;99104.19;4799411;29;20110;-80
2022/11/22 04:12:37;;;;;;;2.13;1.00;;;;;;;14.98;61.26;99114.56;4805115;29;20039;-81
2022/11/22 04:15:06;;;;;;;3.50;1.20;;;;;;;14.99;61.35;99122.31;4809534;30;20039;-80
2022/11/22 04:17:43;;;;;;;2.05;1.00;;;;;;;15.00;61.19;99120.56;4809810;29;20039;-80
2022/11/22 04:23:15;;;;;;;2.63;1.00;;;;;;;14.98;61.23;99110.25;4801049;30;20050;-80
2022/11/22 04:25:44;;;;;;;3.17;1.00;;;;;;;14.98;61.24;99112.84;4799371;29;20511;-81
2022/11/22 04:28:10;;;;;;;3.05;0.93;;;;;;;14.99;61.39;99116.28;4800473;29;20035;-81
2022/11/22 04:33:20;;;;;;;3.35;1.00;;;;;;;14.99;61.27;99118.88;4800760;30;20070;-80
2022/11/22 04:35:47;;;;;;;2.20;0.95;;;;;;;14.97;61.18;99115.47;4799661;29;20483;-80
2022/11/22 04:38:51;;;;;;;1.88;0.85;;;;;;;14.97;60.94;99124.09;4803079;29;20039;-81
2022/11/22 04:41:45;;;;;;;2.38;1.05;;;;;;;14.97;61.04;99131.84;4824483;29;20094;-81
2022/11/22 04:47:12;;;;;;;2.33;0.90;;;;;;;14.96;61.12;99119.81;4804581;29;20111;-80
2022/11/22 04:49:39;;;;;;;2.40;1.10;;;;;;;14.97;61.14;99120.66;4818130;29;20046;-81
2022/11/22 04:54:54;;;;;;;2.50;1.13;;;;;;;14.98;60.97;99119.75;4820846;29;20140;-81
2022/11/22 04:57:20;;;;;;;2.47;1.17;;;;;;;14.97;61.16;99115.47;4791208;29;20047;-81
2022/11/22 04:59:46;;;;;;;3.05;1.13;;;;;;;14.96;60.92;99127.56;4805500;29;20063;-80
2022/11/22 05:02:13;;;;;;;2.08;0.90;;;;;;;14.96;60.87;99135.34;4820463;29;20433;-80
2022/11/22 05:04:46;;;;;;;1.58;0.70;;;;;;;14.96;60.97;99119.81;4792031;29;20047;-80
2022/11/22 05:07:12;;;;;;;1.73;0.77;;;;;;;14.97;61.30;99128.41;4821300;29;20606;-80
2022/11/22 05:09:38;;;;;;;3.15;1.00;;;;;;;14.96;61.06;99124.13;4788431;29;20035;-81
2022/11/22 05:12:04;;;;;;;2.33;0.90;;;;;;;14.96;61.26;99122.41;4786310;30;20050;-79
2022/11/22 05:14:31;;;;;;;1.67;0.90;;;;;;;14.97;61.11;99126.66;4803888;29;20394;-80
2022/11/22 05:16:58;;;;;;;1.67;0.85;;;;;;;14.98;61.25;99124.91;4802459;30;20047;-80
2022/11/22 05:19:28;;;;;;;2.35;0.82;;;;;;;14.97;61.16;99131.84;4803427;29;20475;-80
2022/11/22 05:21:54;;;;;;;2.03;0.82;;;;;;;14.98;61.25;99132.69;4787623;30;20074;-80
2022/11/22 05:24:21;;;;;;;1.95;0.90;;;;;;;14.99;61.15;99132.66;4817983;29;20043;-80
2022/11/22 05:26:55;;;;;;;2.17;0.90;;;;;;;15.00;61.31;99133.50;4805507;29;20059;-80
2022/11/22 05:29:59;;;;;;;1.77;0.95;;;;;;;15.01;61.31;99135.22;4810279;30;20043;-82
2022/11/22 05:36:12;;;;;;;2.15;0.90;;;;;;;15.02;61.41;99142.09;4759770;30;20048;-80
2022/11/22 05:42:24;;;;;;;2.45;1.20;;;;;;;15.02;61.32;99135.19;4759343;30;20095;-82
2022/11/22 05:45:21;;;;;;;5.50;1.52;;;;;;;15.03;61.41;99133.44;4724004;30;20137;-83
2022/11/22 05:47:49;;;;;;;7.88;2.75;;;;;;;15.02;61.33;99142.09;4787420;30;20076;-81
2022/11/22 05:50:23;;;;;;;8.80;3.17;;;;;;;15.02;61.38;99137.78;4791541;30;20047;-81
2022/11/22 05:53:47;;;;;;;9.32;3.00;;;;;;;15.05;61.38;99138.56;4778369;30;20081;-83
2022/11/22 05:56:31;;;;;;;9.02;3.35;;;;;;;15.06;61.61;99142.88;4790113;30;20054;-81
2022/11/22 06:13:35;;;;;;;10.60;3.53;;;;;;;15.08;61.90;99123.81;5226636;24;20065;-82
2022/11/22 06:19:29;;;;;;;11.95;3.90;;;;;;;15.09;62.01;99116.88;4850225;29;20037;-83
2022/11/22 06:22:42;;;;;;;11.32;3.50;;;;;;;15.10;61.91;99116.00;4849297;29;20065;-82
2022/11/22 06:28:36;;;;;;;9.52;3.60;;;;;;;15.09;61.95;99109.97;5553987;24;20828;31
2022/11/22 09:46:38;;;;;;;3.70;1.88;;;;;;;15.51;60.33;99243.66;4865355;29;20069;-86
2022/11/22 11:16:51;;;;;;;3.30;1.60;;;;;;;15.51;59.67;99215.13;4848022;29;20037;-87
2022/11/22 11:36:56;;;;;;;3.40;1.42;;;;;;;15.52;59.18;99203.84;4722020;30;20132;-86
2022/11/22 11:43:41;;;;;;;2.38;1.15;;;;;;;15.56;59.33;99208.06;4707014;30;20069;-87
2022/11/22 11:50:36;;;;;;;2.63;1.30;;;;;;;15.51;59.19;99192.63;4654242;30;20079;-86
2022/11/22 11:54:05;;;;;;;3.45;1.30;;;;;;;15.53;59.28;99195.19;4632805;31;20063;-86
2022/11/22 12:15:21;;;;;;;1.98;1.05;;;;;;;15.55;58.95;99196.00;4707347;30;20049;-87
2022/11/22 12:46:29;;;;;;;1.88;1.00;;;;;;;15.52;58.97;99199.50;5219797;24;20053;-86
2022/11/22 13:28:19;;;;;;;1.92;1.00;;;;;;;15.57;58.55;99204.56;4794083;30;20086;-86
2022/11/22 14:51:03;;;;;;;1.95;0.90;;;;;;;15.50;58.57;99190.91;5326957;24;20038;-86
2022/11/22 15:07:06;;;;;;;2.05;0.82;;;;;;;15.54;58.56;99181.31;4922952;24;20066;-83
2022/11/22 15:27:50;;;;;;;2.33;0.90;;;;;;;15.61;58.97;99180.25;5871497;24;20164;31
2022/11/22 15:31:43;;;;;;;2.08;0.80;;;;;;;15.61;59.23;99191.50;4790368;30;20040;-85
2022/11/22 15:35:12;;;;;;;1.50;0.85;;;;;;;15.62;59.13;99200.97;4756878;30;20037;-84
2022/11/22 15:41:28;;;;;;;2.88;0.95;;;;;;;15.62;59.37;99207.91;4722650;30;20072;-82
2022/11/22 15:44:25;;;;;;;4.00;0.88;;;;;;;15.63;59.29;99219.97;4707008;30;20125;-84
2022/11/22 15:54:20;;;;;;;1.60;0.80;;;;;;;15.61;59.51;99221.75;4721290;30;20056;-84
2022/11/22 16:00:30;;;;;;;1.75;0.80;;;;;;;15.60;59.60;99214.88;4722016;30;20052;-84
2022/11/22 16:06:44;;;;;;;1.23;0.70;;;;;;;15.59;59.67;99210.56;4716991;30;20107;-83
2022/11/22 16:12:40;;;;;;;1.60;0.73;;;;;;;15.58;59.57;99209.72;4722192;30;20089;-85
2022/11/22 16:25:32;;;;;;;1.83;0.80;;;;;;;15.64;59.54;99206.13;4652858;31;20078;-84
2022/11/22 16:28:40;;;;;;;1.85;0.80;;;;;;;15.64;59.61;99214.75;4668538;30;20047;-78
2022/11/22 16:31:43;;;;;;;1.27;0.70;;;;;;;15.66;59.50;99219.03;4652132;30;20055;-86
2022/11/22 16:34:42;;;;;;;1.40;0.90;;;;;;;15.64;59.55;99217.34;4653174;30;20042;-84
2022/11/22 17:23:38;;;;;;;1.00;0.60;;;;;;;15.83;60.01;99248.84;4907989;24;20062;-84
2022/11/22 17:26:11;;;;;;;1.70;0.70;;;;;;;15.85;60.06;99243.59;5155246;24;20061;-81
2022/11/22 17:28:50;;;;;;;0.82;0.57;;;;;;;15.87;60.05;99240.97;4840023;29;20084;-81
2022/11/22 17:42:19;;;;;;;2.03;0.65;;;;;;;15.88;60.30;99240.09;4967253;24;20100;-85
2022/11/22 17:45:41;;;;;;;1.40;0.77;;;;;;;15.86;60.27;99242.72;4779574;30;20059;-83
2022/11/22 17:48:41;;;;;;;1.75;0.60;;;;;;;15.84;60.30;99234.97;4769470;29;20597;-84
2022/11/22 17:56:18;;;;;;;2.35;0.90;;;;;;;15.85;60.75;99246.19;5604453;24;20053;-79
2022/11/22 18:04:41;;;;;;;4.90;1.40;;;;;;;15.88;61.82;99251.31;5342737;24;20045;-84
2022/11/22 18:07:37;;;;;;;4.65;1.67;;;;;;;15.90;62.01;99251.28;4856801;29;20066;-83
2022/11/22 18:13:41;;;;;;;3.08;1.40;;;;;;;15.97;62.06;99263.19;4849079;29;20079;-84
2022/11/22 18:26:22;;;;;;;4.47;1.40;;;;;;;15.98;62.37;99254.47;4848679;29;20038;-83
2022/11/22 18:31:41;;;;;;;2.65;1.13;;;;;;;15.94;62.41;99255.47;4848543;29;20022;-83
2022/11/22 18:37:36;;;;;;;1.92;1.00;;;;;;;15.94;62.34;99266.72;4866486;29;20102;-83
2022/11/22 18:48:08;;;;;;;1.90;0.93;;;;;;;15.91;62.24;99271.13;2760514;27;20091;-85
2022/11/22 18:50:54;;;;;;;2.15;1.20;;;;;;;15.90;62.25;99264.25;4830939;29;20114;-85
2022/11/22 19:00:07;;;;;;;4.82;1.00;;;;;;;15.88;62.01;99279.00;5301556;24;20082;-79
2022/11/22 19:05:42;;;;;;;3.03;1.00;;;;;;;15.89;62.26;99281.53;4880590;24;20058;-82
2022/11/22 19:08:13;;;;;;;2.65;1.05;;;;;;;15.89;62.17;99288.47;4785450;30;20128;-85
2022/11/22 19:10:42;;;;;;;1.63;0.88;;;;;;;15.88;62.04;99281.59;4797948;30;20502;-77
2022/11/22 19:13:38;;;;;;;2.65;1.13;;;;;;;15.90;62.15;99296.22;4784724;30;20605;-79
2022/11/22 19:16:37;;;;;;;4.10;1.00;;;;;;;15.91;62.37;99291.88;4787558;30;20091;-82
2022/11/22 19:45:13;;;;;;;2.95;1.05;;;;;;;15.98;62.07;99308.97;5648120;23;20062;-84
2022/11/22 19:48:34;;;;;;;3.92;1.25;;;;;;;15.98;61.88;99302.06;4845947;29;20038;-84
2022/11/22 19:54:37;;;;;;;2.10;1.10;;;;;;;15.97;62.07;99302.09;4846359;29;20094;-84
2022/11/22 20:00:52;;;;;;;3.53;1.25;;;;;;;15.95;62.00;99301.28;4846573;29;20096;-83
2022/11/22 20:06:47;;;;;;;2.30;1.20;;;;;;;15.95;61.93;99309.91;4845416;29;20360;-84
2022/11/22 20:13:23;;;;;;;1.17;0.95;;;;;;;15.96;62.03;99315.94;4845491;29;20048;-83
2022/11/22 20:16:15;;;;;;;1.38;0.90;;;;;;;15.95;61.80;99314.25;4793494;29;20121;-83
2022/11/22 20:25:43;;;;;;;1.80;1.10;;;;;;;15.94;61.85;99322.91;4772840;30;20062;-84
2022/11/22 20:28:17;;;;;;;1.98;1.00;;;;;;;15.94;61.61;99323.78;4790698;30;20043;-84
2022/11/22 20:34:16;;;;;;;1.92;0.80;;;;;;;15.94;61.50;99323.78;4791882;30;20070;-84
2022/11/22 20:40:47;;;;;;;2.08;1.05;;;;;;;15.94;61.80;99328.97;4792458;30;20050;-84
2022/11/22 20:43:51;;;;;;;2.88;1.20;;;;;;;15.95;61.61;99335.00;4752929;30;20112;-83
2022/11/22 20:46:39;;;;;;;2.35;1.00;;;;;;;15.96;61.58;99336.69;4732827;30;20057;-82
2022/11/22 20:49:44;;;;;;;2.00;0.98;;;;;;;15.95;61.47;99335.00;4706582;30;20057;-83
2022/11/22 20:59:28;;;;;;;1.90;1.02;;;;;;;15.95;61.44;99343.63;4675622;30;20050;-86
2022/11/22 21:06:00;;;;;;;2.55;1.20;;;;;;;15.94;61.47;99344.53;4662612;30;20066;-84
2022/11/22 21:08:45;;;;;;;1.60;1.00;;;;;;;15.95;61.55;99347.97;4668193;30;20043;-85
2022/11/22 21:15:26;;;;;;;1.60;0.88;;;;;;;15.96;61.35;99349.66;4680119;30;20089;-85
2022/11/22 21:18:44;;;;;;;;;;;;;;;;;;;;;
2022/11/22 21:31:14;;;;;;;1.67;1.00;;;;;;;15.96;61.26;99366.09;4790291;29;20054;-85
2022/11/22 21:37:14;;;;;;;1.65;1.00;;;;;;;15.95;61.47;99366.13;4831018;29;20053;-85
2022/11/22 21:40:21;;;;;;;1.80;1.15;;;;;;;15.95;61.47;99366.97;4811307;30;20039;-84
2022/11/22 21:53:30;;;;;;;1.67;0.98;;;;;;;15.96;61.35;99393.78;4853073;24;20067;-84
2022/11/22 22:00:15;;;;;;;1.70;1.05;;;;;;;15.95;61.51;99386.91;4830660;29;20130;-86
2022/11/22 22:16:56;;;;;;;2.08;0.98;;;;;;;15.95;61.44;99392.94;4722536;30;20104;-85
2022/11/22 22:23:20;;;;;;;1.77;1.10;;;;;;;15.96;61.18;99391.19;4723458;30;20105;-84
2022/11/22 22:26:19;;;;;;;2.38;1.10;;;;;;;15.97;61.28;99395.50;4704623;30;20046;-86
2022/11/22 22:32:25;;;;;;;2.67;1.60;;;;;;;15.96;61.53;99401.56;4704001;30;20059;-83
2022/11/22 22:35:56;;;;;;;3.88;1.63;;;;;;;15.94;61.21;99405.94;4687458;30;20106;-84
2022/11/22 22:42:30;;;;;;;4.70;2.63;;;;;;;15.90;61.11;99399.16;4705635;30;20077;-84
2022/11/22 22:45:43;;;;;;;5.45;3.00;;;;;;;15.88;61.28;99406.97;4721832;30;20049;-84
2022/11/22 22:48:09;;;;;;;5.78;2.90;;;;;;;15.88;61.34;99400.94;4705981;30;20120;-80
2022/11/22 22:50:35;;;;;;;4.35;2.63;;;;;;;15.88;61.18;99403.53;4693488;30;20069;-80
2022/11/22 22:53:00;;;;;;;6.32;2.72;;;;;;;15.87;61.13;99406.97;4714725;30;20586;-80
2022/11/22 22:55:26;;;;;;;5.43;2.88;;;;;;;15.85;61.08;99404.41;4745913;30;20040;-80
2022/11/22 22:57:51;;;;;;;4.80;2.70;;;;;;;15.84;61.31;99408.75;4768729;30;20059;-80
2022/11/22 23:00:17;;;;;;;5.22;2.78;;;;;;;15.84;61.03;99415.69;4787166;30;20032;-81
2022/11/22 23:02:43;;;;;;;6.93;2.97;;;;;;;15.84;61.42;99426.06;4768574;30;20055;-81
2022/11/22 23:05:08;;;;;;;6.38;3.20;;;;;;;15.84;61.05;99428.66;4770549;29;20051;-81
2022/11/22 23:07:35;;;;;;;6.43;3.15;;;;;;;15.84;61.07;99426.06;4806223;29;20089;-81
2022/11/22 23:10:01;;;;;;;5.43;3.28;;;;;;;15.83;61.15;99434.75;4803596;29;20031;-80
2022/11/22 23:12:26;;;;;;;5.78;3.10;;;;;;;15.81;61.06;99432.19;4814342;29;20563;-80
2022/11/22 23:14:52;;;;;;;6.43;2.80;;;;;;;15.83;61.15;99432.16;4799567;29;20066;-80
2022/11/22 23:17:17;;;;;;;6.18;3.28;;;;;;;15.81;61.02;99434.78;4815065;29;20554;-80
2022/11/22 23:19:43;;;;;;;6.07;2.75;;;;;;;15.81;61.01;99439.13;4798997;29;20042;-80
2022/11/22 23:22:08;;;;;;;8.20;3.30;;;;;;;15.81;60.83;99441.72;4814167;29;20098;-80
2022/11/22 23:24:34;;;;;;;8.40;3.05;;;;;;;15.81;60.90;99436.53;4813398;29;20058;-80
2022/11/22 23:26:59;;;;;;;7.65;3.40;;;;;;;15.80;60.83;99443.44;4813692;29;20553;-80
2022/11/22 23:29:25;;;;;;;5.35;2.90;;;;;;;15.80;61.03;99448.63;4814560;29;20038;-80
2022/11/22 23:31:51;;;;;;;5.53;3.00;;;;;;;15.80;60.99;99450.38;4814733;29;20043;-80
2022/11/22 23:34:17;;;;;;;5.72;3.00;;;;;;;15.81;61.08;99447.75;4813329;29;20039;-80
2022/11/22 23:36:43;;;;;;;5.15;2.60;;;;;;;15.81;61.17;99450.34;4813025;29;20054;-80
2022/11/22 23:39:09;;;;;;;6.28;2.90;;;;;;;15.79;60.70;99454.72;4812492;29;20042;-80
2022/11/22 23:41:34;;;;;;;7.07;3.03;;;;;;;15.81;61.01;99446.91;4797652;29;20502;-80
2022/11/22 23:44:00;;;;;;;5.90;2.70;;;;;;;15.80;60.84;99452.97;4812755;29;20448;-80
2022/11/22 23:46:27;;;;;;;5.47;2.83;;;;;;;15.80;60.98;99456.41;4796871;29;20114;-80
2022/11/22 23:48:59;;;;;;;6.45;3.08;;;;;;;15.80;60.84;99456.41;4796234;29;20077;-80
2022/11/22 23:51:26;;;;;;;4.68;2.88;;;;;;;15.80;61.10;99463.34;4811295;29;20125;-80
2022/11/22 23:53:57;;;;;;;4.72;2.95;;;;;;;15.78;60.78;99463.38;4794909;29;20555;-80
2022/11/22 23:56:25;;;;;;;7.40;3.10;;;;;;;15.79;61.20;99475.47;4794903;29;20584;-80
2022/11/22 23:58:52;;;;;;;6.47;2.60;;;;;;;15.80;60.69;99473.72;4779219;30;20077;-80
